Rio Frio, Texas
Current Conditions -  °F | °C
As of 9:55 AM on Thursday 30 Oct 2014 (Local Time) from KUVA Reporting Station
Haze Haze  
Wind Chill: 68°   Ceiling: 600
Heat Index: 68°   Visibility: 5mi
Dew Point: 65°   Wind: 5mph
Humidity: 89%   Direction: 100°E
Pressure: 30.15"   Gusts: NA
Location:  29.64°N, 99.74°W
Report Text: KUVA 301455Z AUTO 10004KT 5SM BR BKN006 20/18 A3015 RMK AO2 T02000181
Loading
Personal Weather Stations






























Interactive Weather Map
Tropical Storm Tracking
New forecast layout! Learn more

10-Day Weather Forecast

Advertisements
Track Severe Weather on mobile